sensor_id;sensor_type;location;lat;lon;timestamp;P1;durP1;ratioP1;P2;durP2;ratioP2
6667;SDS011;3370;47.712;9.082;2024-03-06T00:00:11;5.80;;;5.20;;
6667;SDS011;3370;47.712;9.082;2024-03-06T00:02:57;8.20;;;6.30;;
6667;SDS011;3370;47.712;9.082;2024-03-06T00:05:43;8.40;;;5.63;;
6667;SDS011;3370;47.712;9.082;2024-03-06T00:08:30;5.47;;;4.70;;
6667;SDS011;3370;47.712;9.082;2024-03-06T00:11:16;6.13;;;5.10;;
6667;SDS011;3370;47.712;9.082;2024-03-06T00:14:02;4.33;;;4.03;;
6667;SDS011;3370;47.712;9.082;2024-03-06T00:16:50;5.67;;;4.70;;
6667;SDS011;3370;47.712;9.082;2024-03-06T00:19:36;4.53;;;4.13;;
6667;SDS011;3370;47.712;9.082;2024-03-06T00:22:22;5.80;;;4.60;;
6667;SDS011;3370;47.712;9.082;2024-03-06T00:25:09;6.13;;;4.90;;
6667;SDS011;3370;47.712;9.082;2024-03-06T00:27:55;7.27;;;5.57;;
6667;SDS011;3370;47.712;9.082;2024-03-06T00:30:41;6.17;;;5.57;;
6667;SDS011;3370;47.712;9.082;2024-03-06T00:33:27;4.83;;;4.43;;
6667;SDS011;3370;47.712;9.082;2024-03-06T00:36:13;7.40;;;5.20;;
6667;SDS011;3370;47.712;9.082;2024-03-06T00:38:59;6.23;;;5.60;;
6667;SDS011;3370;47.712;9.082;2024-03-06T00:41:45;5.47;;;4.97;;
6667;SDS011;3370;47.712;9.082;2024-03-06T00:44:31;9.13;;;6.67;;
6667;SDS011;3370;47.712;9.082;2024-03-06T00:47:17;7.43;;;5.60;;
6667;SDS011;3370;47.712;9.082;2024-03-06T00:50:04;13.07;;;7.23;;
6667;SDS011;3370;47.712;9.082;2024-03-06T00:52:52;7.27;;;6.00;;
6667;SDS011;3370;47.712;9.082;2024-03-06T00:55:38;8.37;;;6.90;;
6667;SDS011;3370;47.712;9.082;2024-03-06T00:58:24;11.67;;;8.00;;
6667;SDS011;3370;47.712;9.082;2024-03-06T01:01:11;8.90;;;7.80;;
6667;SDS011;3370;47.712;9.082;2024-03-06T01:03:57;12.03;;;9.20;;
6667;SDS011;3370;47.712;9.082;2024-03-06T01:06:43;11.70;;;9.10;;
6667;SDS011;3370;47.712;9.082;2024-03-06T01:09:29;12.87;;;9.70;;
6667;SDS011;3370;47.712;9.082;2024-03-06T01:12:15;13.57;;;9.93;;
6667;SDS011;3370;47.712;9.082;2024-03-06T01:15:01;13.30;;;10.23;;
6667;SDS011;3370;47.712;9.082;2024-03-06T01:17:49;12.07;;;9.60;;
6667;SDS011;3370;47.712;9.082;2024-03-06T01:20:35;10.90;;;9.70;;
6667;SDS011;3370;47.712;9.082;2024-03-06T01:23:22;8.43;;;7.63;;
6667;SDS011;3370;47.712;9.082;2024-03-06T01:26:08;8.33;;;7.43;;
6667;SDS011;3370;47.712;9.082;2024-03-06T01:28:54;6.27;;;5.67;;
6667;SDS011;3370;47.712;9.082;2024-03-06T01:31:40;6.90;;;6.20;;
6667;SDS011;3370;47.712;9.082;2024-03-06T01:34:26;10.33;;;7.90;;
6667;SDS011;3370;47.712;9.082;2024-03-06T01:37:12;6.53;;;5.20;;
6667;SDS011;3370;47.712;9.082;2024-03-06T01:39:58;3.90;;;3.70;;
6667;SDS011;3370;47.712;9.082;2024-03-06T01:42:46;5.93;;;5.40;;
6667;SDS011;3370;47.712;9.082;2024-03-06T01:45:34;4.30;;;3.90;;
6667;SDS011;3370;47.712;9.082;2024-03-06T01:48:21;4.80;;;4.40;;
6667;SDS011;3370;47.712;9.082;2024-03-06T01:51:10;5.07;;;4.57;;
6667;SDS011;3370;47.712;9.082;2024-03-06T01:53:57;5.27;;;4.73;;
6667;SDS011;3370;47.712;9.082;2024-03-06T01:56:46;9.63;;;8.73;;
6667;SDS011;3370;47.712;9.082;2024-03-06T01:59:34;12.43;;;9.30;;
6667;SDS011;3370;47.712;9.082;2024-03-06T02:02:20;6.40;;;5.50;;
6667;SDS011;3370;47.712;9.082;2024-03-06T02:05:07;4.37;;;3.97;;
6667;SDS011;3370;47.712;9.082;2024-03-06T02:07:53;6.93;;;5.70;;
6667;SDS011;3370;47.712;9.082;2024-03-06T02:10:40;8.90;;;5.50;;
6667;SDS011;3370;47.712;9.082;2024-03-06T02:13:26;5.83;;;5.33;;
6667;SDS011;3370;47.712;9.082;2024-03-06T02:16:12;8.40;;;5.27;;
6667;SDS011;3370;47.712;9.082;2024-03-06T02:18:59;4.60;;;4.20;;
6667;SDS011;3370;47.712;9.082;2024-03-06T02:21:45;7.17;;;4.30;;
6667;SDS011;3370;47.712;9.082;2024-03-06T02:28:02;5.17;;;4.63;;
6667;SDS011;3370;47.712;9.082;2024-03-06T02:30:51;12.63;;;6.20;;
6667;SDS011;3370;47.712;9.082;2024-03-06T02:33:37;7.20;;;6.53;;
6667;SDS011;3370;47.712;9.082;2024-03-06T02:36:24;8.03;;;7.10;;
6667;SDS011;3370;47.712;9.082;2024-03-06T02:39:11;7.43;;;6.73;;
6667;SDS011;3370;47.712;9.082;2024-03-06T02:41:57;8.33;;;7.00;;
6667;SDS011;3370;47.712;9.082;2024-03-06T02:44:43;7.53;;;6.73;;
6667;SDS011;3370;47.712;9.082;2024-03-06T02:47:29;7.00;;;6.17;;
6667;SDS011;3370;47.712;9.082;2024-03-06T02:50:15;6.53;;;5.90;;
6667;SDS011;3370;47.712;9.082;2024-03-06T02:53:01;6.70;;;6.10;;
6667;SDS011;3370;47.712;9.082;2024-03-06T02:55:48;6.50;;;5.10;;
6667;SDS011;3370;47.712;9.082;2024-03-06T02:58:35;5.40;;;4.90;;
6667;SDS011;3370;47.712;9.082;2024-03-06T03:01:21;6.50;;;5.70;;
6667;SDS011;3370;47.712;9.082;2024-03-06T03:04:09;5.07;;;4.57;;
6667;SDS011;3370;47.712;9.082;2024-03-06T03:06:56;6.30;;;5.30;;
6667;SDS011;3370;47.712;9.082;2024-03-06T03:09:42;6.40;;;5.57;;
6667;SDS011;3370;47.712;9.082;2024-03-06T03:12:28;3.90;;;3.67;;
6667;SDS011;3370;47.712;9.082;2024-03-06T03:15:14;3.80;;;3.33;;
6667;SDS011;3370;47.712;9.082;2024-03-06T03:18:00;3.47;;;3.27;;
6667;SDS011;3370;47.712;9.082;2024-03-06T03:20:46;5.20;;;4.70;;
6667;SDS011;3370;47.712;9.082;2024-03-06T03:23:32;6.10;;;5.03;;
6667;SDS011;3370;47.712;9.082;2024-03-06T03:26:18;5.10;;;4.70;;
6667;SDS011;3370;47.712;9.082;2024-03-06T03:29:04;6.60;;;5.40;;
6667;SDS011;3370;47.712;9.082;2024-03-06T03:31:50;8.87;;;6.47;;
6667;SDS011;3370;47.712;9.082;2024-03-06T03:34:36;7.50;;;5.93;;
6667;SDS011;3370;47.712;9.082;2024-03-06T03:37:22;5.67;;;5.17;;
6667;SDS011;3370;47.712;9.082;2024-03-06T03:40:09;5.67;;;5.20;;
6667;SDS011;3370;47.712;9.082;2024-03-06T03:42:56;5.80;;;5.40;;
6667;SDS011;3370;47.712;9.082;2024-03-06T03:45:42;5.03;;;4.20;;
6667;SDS011;3370;47.712;9.082;2024-03-06T03:48:28;5.03;;;4.53;;
6667;SDS011;3370;47.712;9.082;2024-03-06T03:51:15;3.40;;;3.20;;
6667;SDS011;3370;47.712;9.082;2024-03-06T03:54:02;3.50;;;3.30;;
6667;SDS011;3370;47.712;9.082;2024-03-06T03:56:48;4.00;;;3.60;;
6667;SDS011;3370;47.712;9.082;2024-03-06T03:59:35;4.93;;;3.70;;
6667;SDS011;3370;47.712;9.082;2024-03-06T04:02:22;4.17;;;3.87;;
6667;SDS011;3370;47.712;9.082;2024-03-06T04:05:08;4.43;;;4.03;;
6667;SDS011;3370;47.712;9.082;2024-03-06T04:07:55;4.20;;;3.80;;
6667;SDS011;3370;47.712;9.082;2024-03-06T04:10:43;4.13;;;3.83;;
6667;SDS011;3370;47.712;9.082;2024-03-06T04:13:30;4.00;;;3.80;;
6667;SDS011;3370;47.712;9.082;2024-03-06T04:16:22;5.47;;;4.53;;
6667;SDS011;3370;47.712;9.082;2024-03-06T04:19:08;4.07;;;3.77;;
6667;SDS011;3370;47.712;9.082;2024-03-06T04:21:54;3.80;;;3.60;;
6667;SDS011;3370;47.712;9.082;2024-03-06T04:24:43;8.17;;;3.67;;
6667;SDS011;3370;47.712;9.082;2024-03-06T04:27:29;3.87;;;3.53;;
6667;SDS011;3370;47.712;9.082;2024-03-06T04:30:16;3.87;;;3.67;;
6667;SDS011;3370;47.712;9.082;2024-03-06T04:33:02;3.77;;;3.57;;
6667;SDS011;3370;47.712;9.082;2024-03-06T04:35:48;3.70;;;3.40;;
6667;SDS011;3370;47.712;9.082;2024-03-06T04:38:34;4.03;;;3.83;;
6667;SDS011;3370;47.712;9.082;2024-03-06T04:41:20;4.93;;;4.53;;
6667;SDS011;3370;47.712;9.082;2024-03-06T04:44:06;4.87;;;4.47;;
6667;SDS011;3370;47.712;9.082;2024-03-06T04:46:52;5.07;;;4.73;;
6667;SDS011;3370;47.712;9.082;2024-03-06T04:49:38;4.27;;;3.97;;
6667;SDS011;3370;47.712;9.082;2024-03-06T04:52:24;4.70;;;4.23;;
6667;SDS011;3370;47.712;9.082;2024-03-06T04:55:10;5.10;;;4.70;;
6667;SDS011;3370;47.712;9.082;2024-03-06T04:57:57;4.40;;;4.03;;
6667;SDS011;3370;47.712;9.082;2024-03-06T05:00:44;5.07;;;4.63;;
6667;SDS011;3370;47.712;9.082;2024-03-06T05:03:30;5.33;;;4.93;;
6667;SDS011;3370;47.712;9.082;2024-03-06T05:06:16;5.43;;;4.93;;
6667;SDS011;3370;47.712;9.082;2024-03-06T05:09:02;5.60;;;5.20;;
6667;SDS011;3370;47.712;9.082;2024-03-06T05:11:48;6.10;;;5.60;;
6667;SDS011;3370;47.712;9.082;2024-03-06T05:14:36;5.30;;;4.90;;
6667;SDS011;3370;47.712;9.082;2024-03-06T05:17:22;6.10;;;5.13;;
6667;SDS011;3370;47.712;9.082;2024-03-06T05:20:08;6.20;;;5.27;;
6667;SDS011;3370;47.712;9.082;2024-03-06T05:22:55;5.60;;;5.10;;
6667;SDS011;3370;47.712;9.082;2024-03-06T05:25:42;5.93;;;5.43;;
6667;SDS011;3370;47.712;9.082;2024-03-06T05:28:28;5.83;;;5.30;;
6667;SDS011;3370;47.712;9.082;2024-03-06T05:31:17;7.07;;;6.37;;
6667;SDS011;3370;47.712;9.082;2024-03-06T05:34:04;6.30;;;5.70;;
6667;SDS011;3370;47.712;9.082;2024-03-06T05:36:50;11.60;;;5.87;;
6667;SDS011;3370;47.712;9.082;2024-03-06T05:39:36;7.17;;;6.07;;
6667;SDS011;3370;47.712;9.082;2024-03-06T05:42:23;5.70;;;5.20;;
6667;SDS011;3370;47.712;9.082;2024-03-06T05:45:09;6.60;;;6.03;;
6667;SDS011;3370;47.712;9.082;2024-03-06T05:47:58;6.20;;;5.70;;
6667;SDS011;3370;47.712;9.082;2024-03-06T05:50:44;7.00;;;6.30;;
6667;SDS011;3370;47.712;9.082;2024-03-06T05:53:30;6.50;;;5.90;;
6667;SDS011;3370;47.712;9.082;2024-03-06T05:56:19;6.47;;;5.87;;
6667;SDS011;3370;47.712;9.082;2024-03-06T05:59:05;7.00;;;6.40;;
6667;SDS011;3370;47.712;9.082;2024-03-06T06:01:53;6.80;;;6.20;;
6667;SDS011;3370;47.712;9.082;2024-03-06T06:04:39;7.73;;;6.57;;
6667;SDS011;3370;47.712;9.082;2024-03-06T06:07:26;8.70;;;6.50;;
6667;SDS011;3370;47.712;9.082;2024-03-06T06:10:12;7.00;;;6.30;;
6667;SDS011;3370;47.712;9.082;2024-03-06T06:12:58;7.27;;;6.57;;
6667;SDS011;3370;47.712;9.082;2024-03-06T06:15:44;7.87;;;7.07;;
6667;SDS011;3370;47.712;9.082;2024-03-06T06:18:30;7.70;;;6.90;;
6667;SDS011;3370;47.712;9.082;2024-03-06T06:21:17;7.20;;;6.50;;
6667;SDS011;3370;47.712;9.082;2024-03-06T06:24:03;7.33;;;6.73;;
6667;SDS011;3370;47.712;9.082;2024-03-06T06:26:50;6.37;;;5.77;;
6667;SDS011;3370;47.712;9.082;2024-03-06T06:29:37;9.50;;;6.07;;
6667;SDS011;3370;47.712;9.082;2024-03-06T06:32:23;7.23;;;6.57;;
6667;SDS011;3370;47.712;9.082;2024-03-06T06:35:09;7.10;;;6.40;;
6667;SDS011;3370;47.712;9.082;2024-03-06T06:38:02;9.17;;;6.43;;
6667;SDS011;3370;47.712;9.082;2024-03-06T06:40:50;6.80;;;6.20;;
6667;SDS011;3370;47.712;9.082;2024-03-06T06:43:36;10.77;;;7.27;;
6667;SDS011;3370;47.712;9.082;2024-03-06T06:46:22;6.20;;;5.70;;
6667;SDS011;3370;47.712;9.082;2024-03-06T06:49:08;7.53;;;6.83;;
6667;SDS011;3370;47.712;9.082;2024-03-06T06:51:54;6.67;;;6.10;;
6667;SDS011;3370;47.712;9.082;2024-03-06T06:54:41;6.43;;;5.83;;
6667;SDS011;3370;47.712;9.082;2024-03-06T06:57:27;5.73;;;5.23;;
6667;SDS011;3370;47.712;9.082;2024-03-06T07:00:13;5.90;;;5.40;;
6667;SDS011;3370;47.712;9.082;2024-03-06T07:03:02;5.37;;;4.97;;
6667;SDS011;3370;47.712;9.082;2024-03-06T07:05:48;5.00;;;4.60;;
6667;SDS011;3370;47.712;9.082;2024-03-06T07:08:35;4.77;;;4.47;;
6667;SDS011;3370;47.712;9.082;2024-03-06T07:11:21;5.60;;;5.10;;
6667;SDS011;3370;47.712;9.082;2024-03-06T07:14:07;4.00;;;3.70;;
6667;SDS011;3370;47.712;9.082;2024-03-06T07:16:53;4.80;;;4.47;;
6667;SDS011;3370;47.712;9.082;2024-03-06T07:19:39;4.37;;;4.07;;
6667;SDS011;3370;47.712;9.082;2024-03-06T07:22:25;4.93;;;4.53;;
6667;SDS011;3370;47.712;9.082;2024-03-06T07:25:11;4.87;;;4.47;;
6667;SDS011;3370;47.712;9.082;2024-03-06T07:27:57;5.63;;;5.13;;
6667;SDS011;3370;47.712;9.082;2024-03-06T07:30:43;5.40;;;5.00;;
6667;SDS011;3370;47.712;9.082;2024-03-06T07:33:30;5.30;;;4.83;;
6667;SDS011;3370;47.712;9.082;2024-03-06T07:36:19;5.17;;;4.83;;
6667;SDS011;3370;47.712;9.082;2024-03-06T07:39:06;4.53;;;4.13;;
6667;SDS011;3370;47.712;9.082;2024-03-06T07:41:55;5.03;;;4.53;;
6667;SDS011;3370;47.712;9.082;2024-03-06T07:44:41;4.40;;;4.10;;
6667;SDS011;3370;47.712;9.082;2024-03-06T07:47:27;4.50;;;4.20;;
6667;SDS011;3370;47.712;9.082;2024-03-06T07:50:13;5.63;;;4.33;;
6667;SDS011;3370;47.712;9.082;2024-03-06T07:53:04;5.37;;;4.97;;
6667;SDS011;3370;47.712;9.082;2024-03-06T07:55:50;4.67;;;4.27;;
6667;SDS011;3370;47.712;9.082;2024-03-06T07:58:37;5.17;;;4.70;;
6667;SDS011;3370;47.712;9.082;2024-03-06T08:01:23;5.50;;;5.00;;
6667;SDS011;3370;47.712;9.082;2024-03-06T08:04:09;5.00;;;4.60;;
6667;SDS011;3370;47.712;9.082;2024-03-06T08:06:55;3.67;;;3.47;;
6667;SDS011;3370;47.712;9.082;2024-03-06T08:09:41;3.80;;;3.50;;
6667;SDS011;3370;47.712;9.082;2024-03-06T08:12:28;5.03;;;4.67;;
6667;SDS011;3370;47.712;9.082;2024-03-06T08:15:14;4.43;;;4.03;;
6667;SDS011;3370;47.712;9.082;2024-03-06T08:18:00;4.33;;;4.03;;
6667;SDS011;3370;47.712;9.082;2024-03-06T08:20:46;4.67;;;4.27;;
6667;SDS011;3370;47.712;9.082;2024-03-06T08:23:32;4.67;;;4.23;;
6667;SDS011;3370;47.712;9.082;2024-03-06T08:26:19;4.83;;;4.47;;
6667;SDS011;3370;47.712;9.082;2024-03-06T08:29:05;6.13;;;4.33;;
6667;SDS011;3370;47.712;9.082;2024-03-06T08:31:52;3.73;;;3.53;;
6667;SDS011;3370;47.712;9.082;2024-03-06T08:34:38;5.27;;;4.87;;
6667;SDS011;3370;47.712;9.082;2024-03-06T08:37:24;4.80;;;4.30;;
6667;SDS011;3370;47.712;9.082;2024-03-06T08:40:10;4.50;;;4.20;;
6667;SDS011;3370;47.712;9.082;2024-03-06T08:42:59;5.17;;;4.70;;
6667;SDS011;3370;47.712;9.082;2024-03-06T08:45:45;4.93;;;4.60;;
6667;SDS011;3370;47.712;9.082;2024-03-06T08:48:32;4.30;;;3.90;;
6667;SDS011;3370;47.712;9.082;2024-03-06T08:51:18;4.47;;;4.10;;
6667;SDS011;3370;47.712;9.082;2024-03-06T08:54:04;4.33;;;4.00;;
6667;SDS011;3370;47.712;9.082;2024-03-06T08:56:50;5.43;;;4.40;;
6667;SDS011;3370;47.712;9.082;2024-03-06T08:59:38;6.43;;;5.30;;
6667;SDS011;3370;47.712;9.082;2024-03-06T09:02:24;4.83;;;4.43;;
6667;SDS011;3370;47.712;9.082;2024-03-06T09:05:11;5.23;;;4.83;;
6667;SDS011;3370;47.712;9.082;2024-03-06T09:07:58;4.90;;;4.50;;
6667;SDS011;3370;47.712;9.082;2024-03-06T09:10:44;5.47;;;5.07;;
6667;SDS011;3370;47.712;9.082;2024-03-06T09:13:30;5.00;;;4.60;;
6667;SDS011;3370;47.712;9.082;2024-03-06T09:16:16;5.47;;;5.07;;
6667;SDS011;3370;47.712;9.082;2024-03-06T09:19:03;5.60;;;5.10;;
6667;SDS011;3370;47.712;9.082;2024-03-06T09:21:49;8.23;;;5.87;;
6667;SDS011;3370;47.712;9.082;2024-03-06T09:24:35;6.53;;;5.77;;
6667;SDS011;3370;47.712;9.082;2024-03-06T09:27:23;5.10;;;4.70;;
6667;SDS011;3370;47.712;9.082;2024-03-06T09:30:09;6.33;;;5.73;;
6667;SDS011;3370;47.712;9.082;2024-03-06T09:32:55;5.73;;;5.23;;
6667;SDS011;3370;47.712;9.082;2024-03-06T09:35:42;5.87;;;5.37;;
6667;SDS011;3370;47.712;9.082;2024-03-06T09:38:30;6.03;;;5.53;;
6667;SDS011;3370;47.712;9.082;2024-03-06T09:41:16;5.03;;;4.53;;
6667;SDS011;3370;47.712;9.082;2024-03-06T09:44:02;5.40;;;4.90;;
6667;SDS011;3370;47.712;9.082;2024-03-06T09:46:49;7.43;;;5.47;;
6667;SDS011;3370;47.712;9.082;2024-03-06T09:49:35;5.77;;;5.27;;
6667;SDS011;3370;47.712;9.082;2024-03-06T09:52:23;5.70;;;5.20;;
6667;SDS011;3370;47.712;9.082;2024-03-06T09:55:13;6.07;;;5.57;;
6667;SDS011;3370;47.712;9.082;2024-03-06T09:58:00;5.87;;;5.30;;
6667;SDS011;3370;47.712;9.082;2024-03-06T10:00:49;5.23;;;4.83;;
6667;SDS011;3370;47.712;9.082;2024-03-06T10:03:36;5.70;;;5.20;;
6667;SDS011;3370;47.712;9.082;2024-03-06T10:06:22;5.60;;;5.10;;
6667;SDS011;3370;47.712;9.082;2024-03-06T10:09:09;6.30;;;5.67;;
6667;SDS011;3370;47.712;9.082;2024-03-06T10:11:56;5.50;;;4.90;;
6667;SDS011;3370;47.712;9.082;2024-03-06T10:14:48;5.47;;;5.07;;
6667;SDS011;3370;47.712;9.082;2024-03-06T10:17:36;7.70;;;5.90;;
6667;SDS011;3370;47.712;9.082;2024-03-06T10:20:23;6.17;;;5.57;;
6667;SDS011;3370;47.712;9.082;2024-03-06T10:23:10;5.77;;;5.30;;
6667;SDS011;3370;47.712;9.082;2024-03-06T10:25:56;5.70;;;5.20;;
6667;SDS011;3370;47.712;9.082;2024-03-06T10:28:44;6.40;;;5.80;;
6667;SDS011;3370;47.712;9.082;2024-03-06T10:31:30;6.80;;;5.40;;
6667;SDS011;3370;47.712;9.082;2024-03-06T10:34:16;6.00;;;5.50;;
6667;SDS011;3370;47.712;9.082;2024-03-06T10:37:03;5.97;;;5.43;;
6667;SDS011;3370;47.712;9.082;2024-03-06T10:39:49;6.17;;;5.57;;
6667;SDS011;3370;47.712;9.082;2024-03-06T10:42:40;7.77;;;5.90;;
6667;SDS011;3370;47.712;9.082;2024-03-06T10:45:39;7.03;;;6.33;;
6667;SDS011;3370;47.712;9.082;2024-03-06T10:48:34;6.07;;;5.57;;
6667;SDS011;3370;47.712;9.082;2024-03-06T10:51:21;7.00;;;6.40;;
6667;SDS011;3370;47.712;9.082;2024-03-06T10:54:08;7.10;;;6.40;;
6667;SDS011;3370;47.712;9.082;2024-03-06T10:56:56;6.20;;;5.70;;
6667;SDS011;3370;47.712;9.082;2024-03-06T10:59:42;6.80;;;6.17;;
6667;SDS011;3370;47.712;9.082;2024-03-06T11:02:29;7.00;;;6.40;;
6667;SDS011;3370;47.712;9.082;2024-03-06T11:05:15;7.47;;;6.80;;
6667;SDS011;3370;47.712;9.082;2024-03-06T11:08:02;7.33;;;6.23;;
6667;SDS011;3370;47.712;9.082;2024-03-06T11:10:48;7.23;;;6.53;;
6667;SDS011;3370;47.712;9.082;2024-03-06T11:13:35;7.47;;;6.77;;
6667;SDS011;3370;47.712;9.082;2024-03-06T11:16:28;8.87;;;7.40;;
6667;SDS011;3370;47.712;9.082;2024-03-06T11:28:41;8.00;;;6.50;;
6667;SDS011;3370;47.712;9.082;2024-03-06T11:31:35;8.73;;;7.83;;
6667;SDS011;3370;47.712;9.082;2024-03-06T11:34:21;10.07;;;7.57;;
6667;SDS011;3370;47.712;9.082;2024-03-06T11:37:08;8.30;;;7.50;;
6667;SDS011;3370;47.712;9.082;2024-03-06T11:39:59;8.73;;;7.83;;
6667;SDS011;3370;47.712;9.082;2024-03-06T11:42:53;8.80;;;7.90;;
6667;SDS011;3370;47.712;9.082;2024-03-06T11:45:45;8.07;;;7.13;;
6667;SDS011;3370;47.712;9.082;2024-03-06T11:48:31;10.03;;;6.70;;
6667;SDS011;3370;47.712;9.082;2024-03-06T11:51:18;7.80;;;7.00;;
6667;SDS011;3370;47.712;9.082;2024-03-06T11:54:04;8.13;;;6.30;;
6667;SDS011;3370;47.712;9.082;2024-03-06T11:56:51;7.70;;;6.90;;
6667;SDS011;3370;47.712;9.082;2024-03-06T11:59:39;7.77;;;7.07;;
6667;SDS011;3370;47.712;9.082;2024-03-06T12:02:25;7.40;;;6.73;;
6667;SDS011;3370;47.712;9.082;2024-03-06T12:05:12;6.33;;;5.73;;
6667;SDS011;3370;47.712;9.082;2024-03-06T12:07:59;6.23;;;5.63;;
6667;SDS011;3370;47.712;9.082;2024-03-06T12:10:45;6.83;;;6.23;;
6667;SDS011;3370;47.712;9.082;2024-03-06T12:13:32;6.50;;;5.90;;
6667;SDS011;3370;47.712;9.082;2024-03-06T12:16:20;6.10;;;5.60;;
6667;SDS011;3370;47.712;9.082;2024-03-06T12:19:06;6.73;;;5.93;;
6667;SDS011;3370;47.712;9.082;2024-03-06T12:21:52;7.03;;;6.33;;
6667;SDS011;3370;47.712;9.082;2024-03-06T12:24:39;5.97;;;5.47;;
6667;SDS011;3370;47.712;9.082;2024-03-06T12:27:25;6.83;;;6.23;;
6667;SDS011;3370;47.712;9.082;2024-03-06T12:30:11;5.80;;;5.30;;
6667;SDS011;3370;47.712;9.082;2024-03-06T12:33:01;6.77;;;6.13;;
6667;SDS011;3370;47.712;9.082;2024-03-06T12:35:59;6.33;;;5.73;;
6667;SDS011;3370;47.712;9.082;2024-03-06T12:38:54;5.33;;;4.93;;
6667;SDS011;3370;47.712;9.082;2024-03-06T12:41:40;7.30;;;5.67;;
6667;SDS011;3370;47.712;9.082;2024-03-06T12:44:27;5.40;;;4.90;;
6667;SDS011;3370;47.712;9.082;2024-03-06T12:47:13;7.50;;;6.50;;
6667;SDS011;3370;47.712;9.082;2024-03-06T12:49:59;6.87;;;6.27;;
6667;SDS011;3370;47.712;9.082;2024-03-06T12:52:45;6.50;;;5.90;;
6667;SDS011;3370;47.712;9.082;2024-03-06T12:55:31;5.20;;;4.80;;
6667;SDS011;3370;47.712;9.082;2024-03-06T12:58:17;6.10;;;5.33;;
6667;SDS011;3370;47.712;9.082;2024-03-06T13:01:03;6.43;;;5.73;;
6667;SDS011;3370;47.712;9.082;2024-03-06T13:03:50;6.10;;;5.50;;
6667;SDS011;3370;47.712;9.082;2024-03-06T13:06:37;6.03;;;5.53;;
6667;SDS011;3370;47.712;9.082;2024-03-06T13:09:25;5.73;;;5.23;;
6667;SDS011;3370;47.712;9.082;2024-03-06T13:12:11;5.50;;;5.10;;
6667;SDS011;3370;47.712;9.082;2024-03-06T13:14:58;6.47;;;5.87;;
6667;SDS011;3370;47.712;9.082;2024-03-06T13:17:44;7.90;;;6.40;;
6667;SDS011;3370;47.712;9.082;2024-03-06T13:20:30;6.83;;;6.17;;
6667;SDS011;3370;47.712;9.082;2024-03-06T13:23:17;5.80;;;5.30;;
6667;SDS011;3370;47.712;9.082;2024-03-06T13:26:03;6.90;;;6.07;;
6667;SDS011;3370;47.712;9.082;2024-03-06T13:28:49;5.70;;;5.20;;
6667;SDS011;3370;47.712;9.082;2024-03-06T13:31:36;5.23;;;4.73;;
6667;SDS011;3370;47.712;9.082;2024-03-06T13:34:23;5.20;;;4.80;;
6667;SDS011;3370;47.712;9.082;2024-03-06T13:37:09;5.00;;;4.60;;
6667;SDS011;3370;47.712;9.082;2024-03-06T13:39:55;4.83;;;4.43;;
6667;SDS011;3370;47.712;9.082;2024-03-06T13:42:45;5.60;;;3.60;;
6667;SDS011;3370;47.712;9.082;2024-03-06T13:45:31;3.97;;;3.67;;
6667;SDS011;3370;47.712;9.082;2024-03-06T13:48:18;3.90;;;3.60;;
6667;SDS011;3370;47.712;9.082;2024-03-06T13:51:04;4.00;;;3.70;;
6667;SDS011;3370;47.712;9.082;2024-03-06T13:53:50;3.97;;;3.53;;
6667;SDS011;3370;47.712;9.082;2024-03-06T13:56:36;4.20;;;3.90;;
6667;SDS011;3370;47.712;9.082;2024-03-06T13:59:22;4.13;;;3.73;;
6667;SDS011;3370;47.712;9.082;2024-03-06T14:02:09;3.77;;;3.47;;
6667;SDS011;3370;47.712;9.082;2024-03-06T14:04:55;3.00;;;2.80;;
6667;SDS011;3370;47.712;9.082;2024-03-06T14:07:41;3.90;;;3.07;;
6667;SDS011;3370;47.712;9.082;2024-03-06T14:10:27;5.77;;;3.37;;
6667;SDS011;3370;47.712;9.082;2024-03-06T14:13:13;3.30;;;3.10;;
6667;SDS011;3370;47.712;9.082;2024-03-06T14:15:59;8.77;;;5.70;;
6667;SDS011;3370;47.712;9.082;2024-03-06T14:18:46;3.33;;;3.03;;
6667;SDS011;3370;47.712;9.082;2024-03-06T14:21:32;2.47;;;2.33;;
6667;SDS011;3370;47.712;9.082;2024-03-06T14:24:18;2.40;;;2.30;;
6667;SDS011;3370;47.712;9.082;2024-03-06T14:27:05;2.07;;;2.07;;
6667;SDS011;3370;47.712;9.082;2024-03-06T14:29:51;2.30;;;2.20;;
6667;SDS011;3370;47.712;9.082;2024-03-06T14:32:39;2.03;;;1.93;;
6667;SDS011;3370;47.712;9.082;2024-03-06T14:35:25;3.90;;;3.60;;
6667;SDS011;3370;47.712;9.082;2024-03-06T14:38:12;12.43;;;7.90;;
6667;SDS011;3370;47.712;9.082;2024-03-06T14:40:58;3.60;;;3.40;;
6667;SDS011;3370;47.712;9.082;2024-03-06T14:43:44;2.37;;;2.27;;
6667;SDS011;3370;47.712;9.082;2024-03-06T14:46:31;4.23;;;3.93;;
6667;SDS011;3370;47.712;9.082;2024-03-06T14:49:17;3.20;;;3.00;;
6667;SDS011;3370;47.712;9.082;2024-03-06T14:52:03;2.90;;;2.70;;
6667;SDS011;3370;47.712;9.082;2024-03-06T14:54:50;2.90;;;2.73;;
6667;SDS011;3370;47.712;9.082;2024-03-06T14:57:36;2.37;;;2.27;;
6667;SDS011;3370;47.712;9.082;2024-03-06T15:00:23;7.07;;;5.60;;
6667;SDS011;3370;47.712;9.082;2024-03-06T15:03:09;4.47;;;4.07;;
6667;SDS011;3370;47.712;9.082;2024-03-06T15:05:55;8.20;;;6.90;;
6667;SDS011;3370;47.712;9.082;2024-03-06T15:08:42;5.40;;;4.90;;
6667;SDS011;3370;47.712;9.082;2024-03-06T15:11:30;4.87;;;4.37;;
6667;SDS011;3370;47.712;9.082;2024-03-06T15:14:19;2.60;;;2.40;;
6667;SDS011;3370;47.712;9.082;2024-03-06T15:17:05;3.93;;;3.53;;
6667;SDS011;3370;47.712;9.082;2024-03-06T15:19:51;6.80;;;5.50;;
6667;SDS011;3370;47.712;9.082;2024-03-06T15:22:38;4.17;;;3.80;;
6667;SDS011;3370;47.712;9.082;2024-03-06T15:25:27;2.90;;;2.70;;
6667;SDS011;3370;47.712;9.082;2024-03-06T15:28:13;5.70;;;4.67;;
6667;SDS011;3370;47.712;9.082;2024-03-06T15:30:59;9.60;;;6.80;;
6667;SDS011;3370;47.712;9.082;2024-03-06T15:33:49;6.57;;;5.53;;
6667;SDS011;3370;47.712;9.082;2024-03-06T15:36:35;4.80;;;4.40;;
6667;SDS011;3370;47.712;9.082;2024-03-06T15:39:23;4.83;;;3.87;;
6667;SDS011;3370;47.712;9.082;2024-03-06T15:42:09;5.20;;;3.40;;
6667;SDS011;3370;47.712;9.082;2024-03-06T15:44:55;2.27;;;1.90;;
6667;SDS011;3370;47.712;9.082;2024-03-06T15:47:41;2.03;;;1.93;;
6667;SDS011;3370;47.712;9.082;2024-03-06T15:50:28;2.70;;;2.60;;
6667;SDS011;3370;47.712;9.082;2024-03-06T15:53:14;2.90;;;2.70;;
6667;SDS011;3370;47.712;9.082;2024-03-06T15:56:00;1.80;;;1.70;;
6667;SDS011;3370;47.712;9.082;2024-03-06T15:58:47;2.97;;;2.80;;
6667;SDS011;3370;47.712;9.082;2024-03-06T16:01:33;2.03;;;1.93;;
6667;SDS011;3370;47.712;9.082;2024-03-06T16:04:19;1.80;;;1.70;;
6667;SDS011;3370;47.712;9.082;2024-03-06T16:07:05;2.30;;;2.20;;
6667;SDS011;3370;47.712;9.082;2024-03-06T16:09:51;2.10;;;2.00;;
6667;SDS011;3370;47.712;9.082;2024-03-06T16:12:37;2.40;;;2.20;;
6667;SDS011;3370;47.712;9.082;2024-03-06T16:15:23;2.13;;;2.03;;
6667;SDS011;3370;47.712;9.082;2024-03-06T16:18:09;2.00;;;1.77;;
6667;SDS011;3370;47.712;9.082;2024-03-06T16:20:56;4.70;;;1.80;;
6667;SDS011;3370;47.712;9.082;2024-03-06T16:23:42;1.63;;;1.60;;
6667;SDS011;3370;47.712;9.082;2024-03-06T16:26:28;2.40;;;1.97;;
6667;SDS011;3370;47.712;9.082;2024-03-06T16:29:16;2.00;;;1.90;;
6667;SDS011;3370;47.712;9.082;2024-03-06T16:32:02;2.17;;;2.07;;
6667;SDS011;3370;47.712;9.082;2024-03-06T16:34:49;2.57;;;2.40;;
6667;SDS011;3370;47.712;9.082;2024-03-06T16:37:36;1.60;;;1.60;;
6667;SDS011;3370;47.712;9.082;2024-03-06T16:40:22;1.83;;;1.80;;
6667;SDS011;3370;47.712;9.082;2024-03-06T16:43:08;1.40;;;1.40;;
6667;SDS011;3370;47.712;9.082;2024-03-06T16:45:54;1.77;;;1.67;;
6667;SDS011;3370;47.712;9.082;2024-03-06T16:48:41;1.67;;;1.60;;
6667;SDS011;3370;47.712;9.082;2024-03-06T16:51:27;2.17;;;2.07;;
6667;SDS011;3370;47.712;9.082;2024-03-06T16:54:13;1.87;;;1.77;;
6667;SDS011;3370;47.712;9.082;2024-03-06T16:57:01;2.23;;;1.83;;
6667;SDS011;3370;47.712;9.082;2024-03-06T16:59:47;1.90;;;1.80;;
6667;SDS011;3370;47.712;9.082;2024-03-06T17:02:34;2.00;;;2.00;;
6667;SDS011;3370;47.712;9.082;2024-03-06T17:05:20;1.93;;;1.83;;
6667;SDS011;3370;47.712;9.082;2024-03-06T17:08:07;2.20;;;2.10;;
6667;SDS011;3370;47.712;9.082;2024-03-06T17:10:53;2.30;;;1.80;;
6667;SDS011;3370;47.712;9.082;2024-03-06T17:13:39;1.60;;;1.50;;
6667;SDS011;3370;47.712;9.082;2024-03-06T17:16:25;2.27;;;2.17;;
6667;SDS011;3370;47.712;9.082;2024-03-06T17:19:11;2.40;;;2.30;;
6667;SDS011;3370;47.712;9.082;2024-03-06T17:21:57;1.80;;;1.70;;
6667;SDS011;3370;47.712;9.082;2024-03-06T17:24:43;1.73;;;1.63;;
6667;SDS011;3370;47.712;9.082;2024-03-06T17:27:29;1.97;;;1.87;;